createdAt,value
2018-01-08T00:00:05.671Z,1014.78
2018-01-08T00:01:05.661Z,1014.79
2018-01-08T00:02:05.652Z,1014.80
2018-01-08T00:03:26.672Z,1014.79
2018-01-08T00:04:05.633Z,1014.79
2018-01-08T00:05:05.629Z,1014.77
2018-01-08T00:06:05.619Z,1014.79
2018-01-08T00:07:05.612Z,1014.77
2018-01-08T00:08:05.648Z,1014.74
2018-01-08T00:09:26.604Z,1014.75
2018-01-08T00:10:05.589Z,1014.72
2018-01-08T00:11:05.594Z,1014.75
2018-01-08T00:12:05.571Z,1014.74
2018-01-08T00:13:05.561Z,1014.75
2018-01-08T00:14:05.556Z,1014.70
2018-01-08T00:15:26.548Z,1014.73
2018-01-08T00:16:05.538Z,1014.63
2018-01-08T00:17:05.530Z,1014.62
2018-01-08T00:18:05.524Z,1014.64
2018-01-08T00:19:05.518Z,1014.62
2018-01-08T00:20:05.507Z,1014.66
2018-01-08T00:21:26.507Z,1014.66
2018-01-08T00:22:05.492Z,1014.72
2018-01-08T00:23:05.485Z,1014.74
2018-01-08T00:24:05.472Z,1014.75
2018-01-08T00:25:05.465Z,1014.69
2018-01-08T00:26:05.455Z,1014.68
2018-01-08T00:27:26.455Z,1014.69
2018-01-08T00:28:05.444Z,1014.70
2018-01-08T00:29:05.433Z,1014.70
2018-01-08T00:30:05.426Z,1014.77
2018-01-08T00:31:05.420Z,1014.70
2018-01-08T00:32:05.407Z,1014.66
2018-01-08T00:33:26.408Z,1014.70
2018-01-08T00:34:05.395Z,1014.70
2018-01-08T00:35:05.386Z,1014.74
2018-01-08T00:36:05.372Z,1014.65
2018-01-08T00:37:05.367Z,1014.69
2018-01-08T00:38:05.363Z,1014.66
2018-01-08T00:39:26.359Z,1014.71
2018-01-08T00:40:05.346Z,1014.68
2018-01-08T00:41:05.338Z,1014.68
2018-01-08T00:42:05.336Z,1014.64
2018-01-08T00:43:05.323Z,1014.64
2018-01-08T00:44:05.314Z,1014.67
2018-01-08T00:45:26.313Z,1014.68
2018-01-08T00:46:05.300Z,1014.66
2018-01-08T00:47:05.290Z,1014.66
2018-01-08T00:48:05.280Z,1014.62
2018-01-08T00:49:05.275Z,1014.62
2018-01-08T00:50:05.265Z,1014.58
2018-01-08T00:51:26.265Z,1014.65
2018-01-08T00:52:05.250Z,1014.64
2018-01-08T00:53:05.244Z,1014.63
2018-01-08T00:54:05.235Z,1014.62
2018-01-08T00:55:05.232Z,1014.65
2018-01-08T00:56:05.219Z,1014.65
2018-01-08T00:57:26.221Z,1014.64
2018-01-08T00:58:05.204Z,1014.64
2018-01-08T00:59:05.196Z,1014.63
2018-01-08T01:00:05.185Z,1014.62
2018-01-08T01:01:05.178Z,1014.61
2018-01-08T01:02:05.171Z,1014.58
2018-01-08T01:03:26.160Z,1014.58
2018-01-08T01:04:05.152Z,1014.60
2018-01-08T01:05:05.148Z,1014.58
2018-01-08T01:06:05.141Z,1014.65
2018-01-08T01:07:05.131Z,1014.63
2018-01-08T01:08:05.120Z,1014.61
2018-01-08T01:09:26.122Z,1014.55
2018-01-08T01:10:05.107Z,1014.54
2018-01-08T01:11:05.102Z,1014.60
2018-01-08T01:12:05.091Z,1014.61
2018-01-08T01:13:05.079Z,1014.57
2018-01-08T01:14:05.074Z,1014.58
2018-01-08T01:15:26.071Z,1014.57
2018-01-08T01:16:05.057Z,1014.58
2018-01-08T01:17:05.050Z,1014.52
2018-01-08T01:18:05.044Z,1014.55
2018-01-08T01:19:05.034Z,1014.59
2018-01-08T01:20:05.026Z,1014.55
2018-01-08T01:21:26.029Z,1014.60
2018-01-08T01:22:05.010Z,1014.55
2018-01-08T01:23:05.004Z,1014.53
2018-01-08T01:24:04.994Z,1014.54
2018-01-08T01:25:04.988Z,1014.49
2018-01-08T01:26:04.981Z,1014.46
2018-01-08T01:27:25.973Z,1014.50
2018-01-08T01:28:04.962Z,1014.42
2018-01-08T01:29:04.956Z,1014.42
2018-01-08T01:30:04.950Z,1014.41
2018-01-08T01:31:04.940Z,1014.33
2018-01-08T01:32:04.934Z,1014.33
2018-01-08T01:33:25.929Z,1014.37
2018-01-08T01:34:04.913Z,1014.34
2018-01-08T01:35:04.912Z,1014.39
2018-01-08T01:36:04.897Z,1014.39
2018-01-08T01:37:04.899Z,1014.34
2018-01-08T01:38:04.881Z,1014.38
2018-01-08T01:39:25.878Z,1014.35
2018-01-08T01:40:04.868Z,1014.40
2018-01-08T01:41:04.859Z,1014.42
2018-01-08T01:42:04.854Z,1014.38
2018-01-08T01:43:04.842Z,1014.46
2018-01-08T01:44:04.831Z,1014.43
2018-01-08T01:45:25.833Z,1014.39
2018-01-08T01:46:04.825Z,1014.38
2018-01-08T01:47:04.813Z,1014.35
2018-01-08T01:48:04.804Z,1014.41
2018-01-08T01:49:04.796Z,1014.40
2018-01-08T01:50:04.788Z,1014.41
2018-01-08T01:51:25.783Z,1014.36
2018-01-08T01:52:04.770Z,1014.34
2018-01-08T01:53:04.761Z,1014.40
2018-01-08T01:54:04.750Z,1014.44
2018-01-08T01:55:04.747Z,1014.47
2018-01-08T01:56:04.738Z,1014.45
2018-01-08T01:57:25.735Z,1014.54
2018-01-08T01:58:04.719Z,1014.50
2018-01-08T01:59:04.733Z,1014.47
2018-01-08T02:00:04.704Z,1014.42
2018-01-08T02:01:04.697Z,1014.42
2018-01-08T02:02:04.690Z,1014.43
2018-01-08T02:03:25.685Z,1014.47
2018-01-08T02:04:04.666Z,1014.44
2018-01-08T02:05:04.666Z,1014.49
2018-01-08T02:06:04.655Z,1014.50
2018-01-08T02:07:04.646Z,1014.52
2018-01-08T02:08:04.638Z,1014.49
2018-01-08T02:09:25.639Z,1014.49
2018-01-08T02:10:04.625Z,1014.38
2018-01-08T02:11:04.615Z,1014.45
2018-01-08T02:12:04.606Z,1014.45
2018-01-08T02:13:04.598Z,1014.46
2018-01-08T02:14:04.593Z,1014.45
2018-01-08T02:15:25.589Z,1014.48
2018-01-08T02:16:04.574Z,1014.45
2018-01-08T02:17:04.567Z,1014.52
2018-01-08T02:18:04.562Z,1014.47
2018-01-08T02:19:04.553Z,1014.46
2018-01-08T02:20:04.545Z,1014.46
2018-01-08T02:21:25.548Z,1014.46
2018-01-08T02:22:04.528Z,1014.48
2018-01-08T02:23:04.519Z,1014.45
2018-01-08T02:24:04.512Z,1014.42
2018-01-08T02:25:04.498Z,1014.42
2018-01-08T02:26:04.496Z,1014.48
2018-01-08T02:27:25.492Z,1014.51
2018-01-08T02:28:04.495Z,1014.51
2018-01-08T02:29:04.466Z,1014.50
2018-01-08T02:30:04.462Z,1014.53
2018-01-08T02:31:04.455Z,1014.54
2018-01-08T02:32:04.448Z,1014.51
2018-01-08T02:33:25.445Z,1014.55
2018-01-08T02:34:04.432Z,1014.53
2018-01-08T02:35:04.424Z,1014.59
2018-01-08T02:36:04.417Z,1014.49
2018-01-08T02:37:04.406Z,1014.55
2018-01-08T02:38:04.395Z,1014.52
2018-01-08T02:39:25.390Z,1014.54
2018-01-08T02:40:04.384Z,1014.53
2018-01-08T02:41:04.375Z,1014.54
2018-01-08T02:42:04.368Z,1014.56
2018-01-08T02:43:04.362Z,1014.56
2018-01-08T02:44:04.355Z,1014.59
2018-01-08T02:45:25.347Z,1014.57
2018-01-08T02:46:04.333Z,1014.55
2018-01-08T02:47:04.325Z,1014.54
2018-01-08T02:48:04.316Z,1014.54
2018-01-08T02:49:04.304Z,1014.51
2018-01-08T02:50:04.304Z,1014.55
2018-01-08T02:51:25.297Z,1014.55
2018-01-08T02:52:04.286Z,1014.55
2018-01-08T02:53:04.275Z,1014.55
2018-01-08T02:54:04.268Z,1014.63
2018-01-08T02:55:04.260Z,1014.58
2018-01-08T02:56:04.253Z,1014.60
2018-01-08T02:57:25.256Z,1014.57
2018-01-08T02:58:04.231Z,1014.56
2018-01-08T02:59:04.225Z,1014.58
2018-01-08T03:00:04.216Z,1014.57
2018-01-08T03:01:04.211Z,1014.57
2018-01-08T03:02:04.204Z,1014.58
2018-01-08T03:03:25.198Z,1014.53
2018-01-08T03:04:04.189Z,1014.55
2018-01-08T03:05:04.181Z,1014.57
2018-01-08T03:06:04.172Z,1014.57
2018-01-08T03:07:04.165Z,1014.53
2018-01-08T03:08:04.154Z,1014.52
2018-01-08T03:09:25.152Z,1014.49
2018-01-08T03:10:04.134Z,1014.50
2018-01-08T03:11:04.130Z,1014.51
2018-01-08T03:12:04.120Z,1014.60
2018-01-08T03:13:04.112Z,1014.62
2018-01-08T03:14:04.105Z,1014.55
2018-01-08T03:15:25.099Z,1014.59
2018-01-08T03:16:04.084Z,1014.61
2018-01-08T03:17:04.079Z,1014.63
2018-01-08T03:18:04.073Z,1014.60
2018-01-08T03:19:04.062Z,1014.62
2018-01-08T03:20:04.050Z,1014.66
2018-01-08T03:21:25.053Z,1014.57
2018-01-08T03:22:04.041Z,1014.64
2018-01-08T03:23:04.030Z,1014.61
2018-01-08T03:24:04.030Z,1014.61
2018-01-08T03:25:04.013Z,1014.68
2018-01-08T03:26:04.004Z,1014.64
2018-01-08T03:27:25.002Z,1014.65
2018-01-08T03:28:03.990Z,1014.63
2018-01-08T03:29:03.982Z,1014.61
2018-01-08T03:30:03.971Z,1014.69
2018-01-08T03:31:03.963Z,1014.63
2018-01-08T03:32:03.957Z,1014.68
2018-01-08T03:33:24.955Z,1014.69
2018-01-08T03:34:03.943Z,1014.70
2018-01-08T03:35:03.934Z,1014.76
2018-01-08T03:36:03.926Z,1014.75
2018-01-08T03:37:03.916Z,1014.76
2018-01-08T03:38:03.911Z,1014.75
2018-01-08T03:39:24.909Z,1014.77
2018-01-08T03:40:03.891Z,1014.83
2018-01-08T03:41:03.883Z,1014.82
2018-01-08T03:42:03.878Z,1014.83
2018-01-08T03:43:03.869Z,1014.83
2018-01-08T03:44:03.860Z,1014.79
2018-01-08T03:45:24.856Z,1014.84
2018-01-08T03:46:03.844Z,1014.74
2018-01-08T03:47:03.832Z,1014.70
2018-01-08T03:48:03.828Z,1014.66
2018-01-08T03:49:03.823Z,1014.62
2018-01-08T03:50:03.813Z,1014.63
2018-01-08T03:51:24.808Z,1014.70
2018-01-08T03:52:03.797Z,1014.72
2018-01-08T03:53:03.795Z,1014.74
2018-01-08T03:54:03.788Z,1014.74
2018-01-08T03:55:03.772Z,1014.74
2018-01-08T03:56:03.765Z,1014.76
2018-01-08T03:57:24.760Z,1014.79
2018-01-08T03:58:03.747Z,1014.75
2018-01-08T03:59:03.738Z,1014.71
2018-01-08T04:00:03.730Z,1014.67
2018-01-08T04:01:03.720Z,1014.65
2018-01-08T04:02:03.708Z,1014.67
2018-01-08T04:03:24.713Z,1014.60
2018-01-08T04:04:03.701Z,1014.60
2018-01-08T04:05:03.690Z,1014.56
2018-01-08T04:06:03.689Z,1014.56
2018-01-08T04:07:03.674Z,1014.52
2018-01-08T04:08:03.667Z,1014.51
2018-01-08T04:09:24.663Z,1014.50
2018-01-08T04:10:03.649Z,1014.49
2018-01-08T04:11:03.638Z,1014.50
2018-01-08T04:12:03.636Z,1014.50
2018-01-08T04:13:03.631Z,1014.49
2018-01-08T04:14:03.622Z,1014.48
2018-01-08T04:15:24.615Z,1014.46
2018-01-08T04:16:03.600Z,1014.45
2018-01-08T04:17:03.595Z,1014.48
2018-01-08T04:18:03.584Z,1014.44
2018-01-08T04:19:03.577Z,1014.47
2018-01-08T04:20:03.567Z,1014.49
2018-01-08T04:21:24.567Z,1014.51
2018-01-08T04:22:03.555Z,1014.49
2018-01-08T04:23:03.544Z,1014.51
2018-01-08T04:24:03.545Z,1014.52
2018-01-08T04:25:03.531Z,1014.50
2018-01-08T04:26:03.522Z,1014.49
2018-01-08T04:27:24.516Z,1014.45
2018-01-08T04:28:03.506Z,1014.53
2018-01-08T04:29:03.497Z,1014.49
2018-01-08T04:30:03.491Z,1014.54
2018-01-08T04:31:03.479Z,1014.54
2018-01-08T04:32:03.473Z,1014.54
2018-01-08T04:33:25.221Z,1014.51
2018-01-08T04:34:03.461Z,1014.52
2018-01-08T04:35:03.453Z,1014.52
2018-01-08T04:36:03.444Z,1014.51
2018-01-08T04:37:03.430Z,1014.50
2018-01-08T04:38:03.426Z,1014.47
2018-01-08T04:39:24.418Z,1014.48
2018-01-08T04:40:03.407Z,1014.51
2018-01-08T04:41:03.402Z,1014.54
2018-01-08T04:42:03.394Z,1014.55
2018-01-08T04:43:03.383Z,1014.57
2018-01-08T04:44:03.378Z,1014.54
2018-01-08T04:45:24.373Z,1014.59
2018-01-08T04:46:03.367Z,1014.54
2018-01-08T04:47:03.352Z,1014.54
2018-01-08T04:48:03.349Z,1014.53
2018-01-08T04:49:03.336Z,1014.54
2018-01-08T04:50:03.330Z,1014.52
2018-01-08T04:51:24.322Z,1014.54
2018-01-08T04:52:03.317Z,1014.52
2018-01-08T04:53:03.305Z,1014.50
2018-01-08T04:54:03.297Z,1014.52
2018-01-08T04:55:03.290Z,1014.56
2018-01-08T04:56:03.281Z,1014.57
2018-01-08T04:57:24.278Z,1014.54
2018-01-08T04:58:03.267Z,1014.54
2018-01-08T04:59:03.258Z,1014.53
2018-01-08T05:00:03.252Z,1014.52
2018-01-08T05:01:03.245Z,1014.50
2018-01-08T05:02:03.234Z,1014.48
2018-01-08T05:03:24.232Z,1014.46
2018-01-08T05:04:03.219Z,1014.47
2018-01-08T05:05:03.215Z,1014.50
2018-01-08T05:06:03.205Z,1014.54
2018-01-08T05:07:03.220Z,1014.55
2018-01-08T05:08:03.182Z,1014.58
2018-01-08T05:09:24.187Z,1014.58
2018-01-08T05:10:03.170Z,1014.63
2018-01-08T05:11:03.163Z,1014.58
2018-01-08T05:12:03.153Z,1014.60
2018-01-08T05:13:03.147Z,1014.67
2018-01-08T05:14:03.142Z,1014.64
2018-01-08T05:15:24.137Z,1014.62
2018-01-08T05:16:03.123Z,1014.64
2018-01-08T05:17:03.116Z,1014.65
2018-01-08T05:18:03.108Z,1014.65
2018-01-08T05:19:03.100Z,1014.71
2018-01-08T05:20:03.095Z,1014.65
2018-01-08T05:21:24.092Z,1014.67
2018-01-08T05:22:03.078Z,1014.61
2018-01-08T05:23:03.065Z,1014.61
2018-01-08T05:24:03.062Z,1014.58
2018-01-08T05:25:03.053Z,1014.58
2018-01-08T05:26:03.046Z,1014.56
2018-01-08T05:27:24.043Z,1014.55
2018-01-08T05:28:03.026Z,1014.57
2018-01-08T05:29:03.015Z,1014.57
2018-01-08T05:30:03.015Z,1014.57
2018-01-08T05:31:03.006Z,1014.62
2018-01-08T05:32:02.995Z,1014.56
2018-01-08T05:33:23.993Z,1014.62
2018-01-08T05:34:02.980Z,1014.61
2018-01-08T05:35:02.973Z,1014.58
2018-01-08T05:36:02.966Z,1014.59
2018-01-08T05:37:02.961Z,1014.57
2018-01-08T05:38:02.949Z,1014.55
2018-01-08T05:39:23.942Z,1014.61
2018-01-08T05:40:02.953Z,1014.60
2018-01-08T05:41:02.920Z,1014.61
2018-01-08T05:42:02.914Z,1014.61
2018-01-08T05:43:02.910Z,1014.60
2018-01-08T05:44:02.903Z,1014.62
2018-01-08T05:45:23.902Z,1014.65
2018-01-08T05:46:02.893Z,1014.68
2018-01-08T05:47:02.897Z,1014.69
2018-01-08T05:48:02.887Z,1014.74
2018-01-08T05:49:02.870Z,1014.73
2018-01-08T05:50:02.877Z,1014.74
2018-01-08T05:51:23.864Z,1014.73
2018-01-08T05:52:02.880Z,1014.72
2018-01-08T05:53:02.828Z,1014.77
2018-01-08T05:54:02.844Z,1014.78
2018-01-08T05:55:02.811Z,1014.76
2018-01-08T05:56:02.815Z,1014.73
2018-01-08T05:57:23.805Z,1014.76
2018-01-08T05:58:02.788Z,1014.73
2018-01-08T05:59:02.785Z,1014.69
2018-01-08T06:00:02.777Z,1014.77
2018-01-08T06:01:02.769Z,1014.72
2018-01-08T06:02:02.763Z,1014.75
2018-01-08T06:03:23.754Z,1014.72
2018-01-08T06:04:02.752Z,1014.74
2018-01-08T06:05:02.738Z,1014.71
2018-01-08T06:06:02.738Z,1014.72
2018-01-08T06:07:02.734Z,1014.72
2018-01-08T06:08:02.710Z,1014.72
2018-01-08T06:09:23.716Z,1014.66
2018-01-08T06:10:02.696Z,1014.66
2018-01-08T06:11:02.691Z,1014.67
2018-01-08T06:12:02.682Z,1014.65
2018-01-08T06:13:02.675Z,1014.64
2018-01-08T06:14:02.664Z,1014.64
2018-01-08T06:15:23.664Z,1014.63
2018-01-08T06:16:02.653Z,1014.61
2018-01-08T06:17:02.651Z,1014.58
2018-01-08T06:18:02.636Z,1014.66
2018-01-08T06:19:02.631Z,1014.65
2018-01-08T06:20:02.620Z,1014.64
2018-01-08T06:21:23.617Z,1014.63
2018-01-08T06:22:02.604Z,1014.63
2018-01-08T06:23:02.595Z,1014.61
2018-01-08T06:24:02.589Z,1014.59
2018-01-08T06:25:02.582Z,1014.64
2018-01-08T06:26:02.574Z,1014.63
2018-01-08T06:27:24.253Z,1014.62
2018-01-08T06:28:02.559Z,1014.64
2018-01-08T06:29:02.550Z,1014.59
2018-01-08T06:30:02.540Z,1014.55
2018-01-08T06:31:02.533Z,1014.52
2018-01-08T06:32:02.527Z,1014.55
2018-01-08T06:33:23.528Z,1014.51
2018-01-08T06:34:02.510Z,1014.54
2018-01-08T06:35:02.502Z,1014.54
2018-01-08T06:36:02.499Z,1014.53
2018-01-08T06:37:02.487Z,1014.55
2018-01-08T06:38:02.479Z,1014.53
2018-01-08T06:39:23.479Z,1014.53
2018-01-08T06:40:02.466Z,1014.48
2018-01-08T06:41:02.456Z,1014.52
2018-01-08T06:42:02.451Z,1014.51
2018-01-08T06:43:02.441Z,1014.48
2018-01-08T06:44:02.434Z,1014.52
2018-01-08T06:45:23.435Z,1014.51
2018-01-08T06:46:02.418Z,1014.52
2018-01-08T06:47:02.414Z,1014.49
2018-01-08T06:48:02.403Z,1014.53
2018-01-08T06:49:02.394Z,1014.57
2018-01-08T06:50:02.387Z,1014.51
2018-01-08T06:51:23.383Z,1014.51
2018-01-08T06:52:02.370Z,1014.51
2018-01-08T06:53:02.363Z,1014.47
2018-01-08T06:54:02.355Z,1014.55
2018-01-08T06:55:02.344Z,1014.52
2018-01-08T06:56:02.339Z,1014.55
2018-01-08T06:57:23.338Z,1014.56
2018-01-08T06:58:02.324Z,1014.52
2018-01-08T06:59:02.316Z,1014.55
2018-01-08T07:00:02.311Z,1014.57
2018-01-08T07:01:02.300Z,1014.57
2018-01-08T07:02:02.294Z,1014.58
2018-01-08T07:03:24.257Z,1014.54
2018-01-08T07:04:02.276Z,1014.56
2018-01-08T07:05:02.262Z,1014.53
2018-01-08T07:06:02.256Z,1014.54
2018-01-08T07:07:02.767Z,1014.54
2018-01-08T07:08:02.244Z,1014.48
2018-01-08T07:09:23.252Z,1014.53
2018-01-08T07:10:02.228Z,1014.53
2018-01-08T07:11:02.219Z,1014.49
2018-01-08T07:12:02.209Z,1014.50
2018-01-08T07:13:02.204Z,1014.48
2018-01-08T07:14:02.195Z,1014.48
2018-01-08T07:15:23.192Z,1014.49
2018-01-08T07:16:02.178Z,1014.54
2018-01-08T07:17:02.172Z,1014.51
2018-01-08T07:18:02.164Z,1014.49
2018-01-08T07:19:02.154Z,1014.51
2018-01-08T07:20:02.149Z,1014.53
2018-01-08T07:21:23.156Z,1014.54
2018-01-08T07:22:02.131Z,1014.55
2018-01-08T07:23:02.124Z,1014.59
2018-01-08T07:24:02.118Z,1014.56
2018-01-08T07:25:02.107Z,1014.55
2018-01-08T07:26:02.096Z,1014.54
2018-01-08T07:27:23.095Z,1014.54
2018-01-08T07:28:02.082Z,1014.55
2018-01-08T07:29:02.075Z,1014.54
2018-01-08T07:30:02.068Z,1014.48
2018-01-08T07:31:02.061Z,1014.48
2018-01-08T07:32:02.048Z,1014.49
2018-01-08T07:33:23.061Z,1014.47
2018-01-08T07:34:02.036Z,1014.50
2018-01-08T07:35:02.029Z,1014.50
2018-01-08T07:36:02.016Z,1014.52
2018-01-08T07:37:02.013Z,1014.54
2018-01-08T07:38:02.007Z,1014.54
2018-01-08T07:39:23.003Z,1014.55
2018-01-08T07:40:01.987Z,1014.56
2018-01-08T07:41:01.978Z,1014.52
2018-01-08T07:42:01.970Z,1014.54
2018-01-08T07:43:01.961Z,1014.53
2018-01-08T07:44:01.956Z,1014.55
2018-01-08T07:45:22.956Z,1014.55
2018-01-08T07:46:01.938Z,1014.51
2018-01-08T07:47:01.930Z,1014.56
2018-01-08T07:48:02.859Z,1014.55
2018-01-08T07:49:01.918Z,1014.53
2018-01-08T07:50:01.908Z,1014.50
2018-01-08T07:51:22.902Z,1014.47
2018-01-08T07:52:01.896Z,1014.52
2018-01-08T07:53:01.884Z,1014.54
2018-01-08T07:54:01.877Z,1014.54
2018-01-08T07:55:02.853Z,1014.53
2018-01-08T07:56:01.860Z,1014.52
2018-01-08T07:57:22.861Z,1014.56
2018-01-08T07:58:01.843Z,1014.57
2018-01-08T07:59:01.840Z,1014.56
2018-01-08T08:00:01.828Z,1014.59
2018-01-08T08:01:01.819Z,1014.64
2018-01-08T08:02:01.816Z,1014.64
2018-01-08T08:03:22.812Z,1014.62
2018-01-08T08:04:01.795Z,1014.66
2018-01-08T08:05:01.788Z,1014.69
2018-01-08T08:06:01.788Z,1014.71
2018-01-08T08:07:01.769Z,1014.72
2018-01-08T08:08:01.763Z,1014.75
2018-01-08T08:09:22.761Z,1014.73
2018-01-08T08:10:01.749Z,1014.75
2018-01-08T08:11:01.740Z,1014.76
2018-01-08T08:12:01.731Z,1014.78
2018-01-08T08:13:01.723Z,1014.75
2018-01-08T08:14:01.721Z,1014.80
2018-01-08T08:15:22.712Z,1014.75
2018-01-08T08:16:01.703Z,1014.73
2018-01-08T08:17:01.694Z,1014.72
2018-01-08T08:18:01.685Z,1014.65
2018-01-08T08:19:01.678Z,1014.67
2018-01-08T08:20:01.675Z,1014.65
2018-01-08T08:21:22.668Z,1014.70
2018-01-08T08:22:01.668Z,1014.69
2018-01-08T08:23:01.641Z,1014.70
2018-01-08T08:24:01.644Z,1014.76
2018-01-08T08:25:01.633Z,1014.76
2018-01-08T08:26:01.630Z,1014.78
2018-01-08T08:27:22.617Z,1014.79
2018-01-08T08:28:01.610Z,1014.79
2018-01-08T08:29:01.600Z,1014.73
2018-01-08T08:30:01.593Z,1014.76
2018-01-08T08:31:01.586Z,1014.75
2018-01-08T08:32:01.574Z,1014.71
2018-01-08T08:33:22.574Z,1014.68
2018-01-08T08:34:01.563Z,1014.72
2018-01-08T08:35:01.557Z,1014.73
2018-01-08T08:36:01.544Z,1014.72
2018-01-08T08:37:01.536Z,1014.77
2018-01-08T08:38:01.533Z,1014.77
2018-01-08T08:39:22.526Z,1014.79
2018-01-08T08:40:01.512Z,1014.75
2018-01-08T08:41:01.505Z,1014.77
2018-01-08T08:42:01.510Z,1014.75
2018-01-08T08:43:02.292Z,1014.79
2018-01-08T08:44:01.480Z,1014.77
2018-01-08T08:45:22.479Z,1014.83
2018-01-08T08:46:01.467Z,1014.77
2018-01-08T08:47:01.468Z,1014.77
2018-01-08T08:48:01.445Z,1014.76
2018-01-08T08:49:01.443Z,1014.79
2018-01-08T08:50:01.434Z,1014.71
2018-01-08T08:51:22.432Z,1014.73
2018-01-08T08:52:01.422Z,1014.75
2018-01-08T08:53:01.410Z,1014.72
2018-01-08T08:54:01.403Z,1014.79
2018-01-08T08:55:01.633Z,1014.79
2018-01-08T08:56:01.390Z,1014.80
2018-01-08T08:57:22.390Z,1014.77
2018-01-08T08:58:01.372Z,1014.83
2018-01-08T08:59:01.365Z,1014.82
2018-01-08T09:00:01.354Z,1014.83
2018-01-08T09:01:01.350Z,1014.85
2018-01-08T09:02:01.870Z,1014.88
2018-01-08T09:03:22.343Z,1014.89
2018-01-08T09:04:01.322Z,1014.92
2018-01-08T09:05:01.317Z,1014.88
2018-01-08T09:06:01.317Z,1014.91
2018-01-08T09:07:01.302Z,1014.92
2018-01-08T09:08:01.296Z,1014.92
2018-01-08T09:09:22.301Z,1014.93
2018-01-08T09:10:01.280Z,1014.87
2018-01-08T09:11:01.273Z,1014.89
2018-01-08T09:12:01.264Z,1014.85
2018-01-08T09:13:01.258Z,1014.84
2018-01-08T09:14:01.248Z,1014.87
2018-01-08T09:15:22.248Z,1014.86
2018-01-08T09:16:01.234Z,1014.87
2018-01-08T09:17:01.226Z,1014.92
2018-01-08T09:18:01.221Z,1014.91
2018-01-08T09:19:01.211Z,1014.96
2018-01-08T09:20:01.214Z,1014.94
2018-01-08T09:21:22.204Z,1014.95
2018-01-08T09:22:01.189Z,1014.89
2018-01-08T09:23:01.180Z,1014.92
2018-01-08T09:24:01.172Z,1014.91
2018-01-08T09:25:01.164Z,1014.88
2018-01-08T09:26:01.157Z,1014.91
2018-01-08T09:27:22.156Z,1014.92
2018-01-08T09:28:01.143Z,1014.88
2018-01-08T09:29:01.136Z,1014.92
2018-01-08T09:30:01.128Z,1014.94
2018-01-08T09:31:01.120Z,1014.92
2018-01-08T09:32:01.111Z,1014.93
2018-01-08T09:33:22.113Z,1014.89
2018-01-08T09:34:01.097Z,1014.94
2018-01-08T09:35:01.090Z,1014.92
2018-01-08T09:36:01.083Z,1014.86
2018-01-08T09:37:01.074Z,1014.90
2018-01-08T09:38:01.069Z,1014.92
2018-01-08T09:39:22.070Z,1014.90
2018-01-08T09:40:01.053Z,1014.93
2018-01-08T09:41:01.045Z,1014.88
2018-01-08T09:42:01.049Z,1014.88
2018-01-08T09:43:01.028Z,1014.88
2018-01-08T09:44:01.029Z,1014.86
2018-01-08T09:45:22.843Z,1014.91
2018-01-08T09:46:01.001Z,1014.87
2018-01-08T09:47:01.011Z,1014.88
2018-01-08T09:48:00.991Z,1014.90
2018-01-08T09:49:00.984Z,1014.88
2018-01-08T09:50:00.979Z,1014.90
2018-01-08T09:51:21.968Z,1014.85
2018-01-08T09:52:00.960Z,1014.82
2018-01-08T09:53:00.953Z,1014.84
2018-01-08T09:54:00.946Z,1014.79
2018-01-08T09:55:00.937Z,1014.82
2018-01-08T09:56:00.929Z,1014.79
2018-01-08T09:57:21.934Z,1014.75
2018-01-08T09:58:00.917Z,1014.71
2018-01-08T09:59:00.910Z,1014.70
2018-01-08T10:00:00.901Z,1014.64
2018-01-08T10:01:00.895Z,1014.67
2018-01-08T10:02:00.887Z,1014.60
2018-01-08T10:03:21.890Z,1014.63
2018-01-08T10:04:00.867Z,1014.66
2018-01-08T10:05:00.866Z,1014.63
2018-01-08T10:06:00.859Z,1014.64
2018-01-08T10:07:00.851Z,1014.70
2018-01-08T10:08:00.840Z,1014.63
2018-01-08T10:09:21.838Z,1014.65
2018-01-08T10:10:00.828Z,1014.62
2018-01-08T10:11:00.823Z,1014.63
2018-01-08T10:12:00.808Z,1014.61
2018-01-08T10:13:00.804Z,1014.62
2018-01-08T10:14:00.801Z,1014.61
2018-01-08T10:15:22.309Z,1014.60
2018-01-08T10:16:00.777Z,1014.52
2018-01-08T10:17:00.777Z,1014.54
2018-01-08T10:18:00.768Z,1014.57
2018-01-08T10:19:00.761Z,1014.48
2018-01-08T10:20:00.749Z,1014.47
2018-01-08T10:21:21.750Z,1014.47
2018-01-08T10:22:00.751Z,1014.49
2018-01-08T10:23:00.738Z,1014.52
2018-01-08T10:24:00.721Z,1014.53
2018-01-08T10:25:00.718Z,1014.52
2018-01-08T10:26:00.705Z,1014.46
2018-01-08T10:27:21.708Z,1014.48
2018-01-08T10:28:00.699Z,1014.48
2018-01-08T10:29:00.687Z,1014.41
2018-01-08T10:30:00.680Z,1014.40
2018-01-08T10:31:00.685Z,1014.40
2018-01-08T10:32:00.667Z,1014.38
2018-01-08T10:33:21.699Z,1014.42
2018-01-08T10:34:00.652Z,1014.35
2018-01-08T10:35:00.680Z,1014.35
2018-01-08T10:36:00.634Z,1014.39
2018-01-08T10:37:00.636Z,1014.37
2018-01-08T10:38:00.623Z,1014.33
2018-01-08T10:39:21.620Z,1014.33
2018-01-08T10:40:00.610Z,1014.38
2018-01-08T10:41:00.600Z,1014.35
2018-01-08T10:42:00.593Z,1014.37
2018-01-08T10:43:00.586Z,1014.36
2018-01-08T10:44:00.580Z,1014.33
2018-01-08T10:45:21.578Z,1014.29
2018-01-08T10:46:00.565Z,1014.31
2018-01-08T10:47:00.571Z,1014.30
2018-01-08T10:48:00.549Z,1014.30
2018-01-08T10:49:00.542Z,1014.27
2018-01-08T10:50:00.536Z,1014.20
2018-01-08T10:51:21.535Z,1014.21
2018-01-08T10:52:00.521Z,1014.17
2018-01-08T10:53:00.516Z,1014.11
2018-01-08T10:54:00.509Z,1014.14
2018-01-08T10:55:00.500Z,1014.10
2018-01-08T10:56:00.518Z,1014.12
2018-01-08T10:57:21.491Z,1014.12
2018-01-08T10:58:00.480Z,1014.11
2018-01-08T10:59:00.473Z,1014.10
2018-01-08T11:00:00.466Z,1014.04
2018-01-08T11:01:00.464Z,1014.01
2018-01-08T11:02:00.714Z,1014.05
2018-01-08T11:03:21.451Z,1013.97
2018-01-08T11:04:00.436Z,1013.96
2018-01-08T11:05:00.432Z,1013.94
2018-01-08T11:06:00.425Z,1013.93
2018-01-08T11:07:00.433Z,1013.91
2018-01-08T11:08:00.408Z,1013.93
2018-01-08T11:09:21.408Z,1013.93
2018-01-08T11:10:00.395Z,1013.88
2018-01-08T11:11:00.382Z,1013.85
2018-01-08T11:12:00.380Z,1013.85
2018-01-08T11:13:00.374Z,1013.84
2018-01-08T11:14:00.365Z,1013.83
2018-01-08T11:15:21.369Z,1013.89
2018-01-08T11:16:00.356Z,1013.88
2018-01-08T11:17:00.340Z,1013.85
2018-01-08T11:18:00.341Z,1013.88
2018-01-08T11:19:00.333Z,1013.86
2018-01-08T11:20:00.324Z,1013.86
2018-01-08T11:21:21.317Z,1013.86
2018-01-08T11:22:00.310Z,1013.89
2018-01-08T11:23:00.302Z,1013.87
2018-01-08T11:24:00.299Z,1013.83
2018-01-08T11:25:00.288Z,1013.88
2018-01-08T11:26:00.281Z,1013.83
2018-01-08T11:27:21.280Z,1013.85
2018-01-08T11:28:00.263Z,1013.90
2018-01-08T11:29:00.258Z,1013.87
2018-01-08T11:30:00.252Z,1013.85
2018-01-08T11:31:00.240Z,1013.91
2018-01-08T11:32:00.235Z,1013.89
2018-01-08T11:33:21.237Z,1013.88
2018-01-08T11:34:00.224Z,1013.91
2018-01-08T11:35:00.215Z,1013.87
2018-01-08T11:36:00.208Z,1013.90
2018-01-08T11:37:00.205Z,1013.87
2018-01-08T11:38:00.196Z,1013.82
2018-01-08T11:39:21.197Z,1013.85
2018-01-08T11:40:00.180Z,1013.88
2018-01-08T11:41:00.174Z,1013.89
2018-01-08T11:42:00.167Z,1013.85
2018-01-08T11:43:00.160Z,1013.87
2018-01-08T11:44:00.154Z,1013.81
2018-01-08T11:45:21.152Z,1013.76
2018-01-08T11:46:00.137Z,1013.73
2018-01-08T11:47:00.140Z,1013.82
2018-01-08T11:48:00.138Z,1013.77
2018-01-08T11:49:00.119Z,1013.81
2018-01-08T11:50:00.126Z,1013.77
2018-01-08T11:51:21.115Z,1013.77
2018-01-08T11:52:00.132Z,1013.75
2018-01-08T11:53:00.097Z,1013.79
2018-01-08T11:54:00.094Z,1013.75
2018-01-08T11:55:00.085Z,1013.74
2018-01-08T11:56:00.070Z,1013.73
2018-01-08T11:57:21.073Z,1013.67
2018-01-08T11:58:00.051Z,1013.70
2018-01-08T11:59:00.045Z,1013.68
2018-01-08T12:00:00.049Z,1013.67
2018-01-08T12:01:00.063Z,1013.65
2018-01-08T12:02:00.032Z,1013.64
2018-01-08T12:03:21.026Z,1013.65
2018-01-08T12:04:00.018Z,1013.61
2018-01-08T12:05:00.012Z,1013.59